Woody, CA (93287)

6:06 AM PDT on October 20, 2014 (GMT -0700)
RAWS DEMOCRAT CA US | Change Station
CLOSE
Current Station
Personal Weather Station
Location: Bodfish, CA
Elevation: 2363 ft
Nearby Weather Stations

Elev 2363 ft 35.53 °N, 118.63 °W | Updated 41 minutes ago

Clear
Clear
52 °F
Feels Like 52 °F
N
0
Wind Variable Wind from North
Gusts 5.0 mph

Today
High -- | Low -- °F
--% Chance of Precip.
Yesterday
High -- | Low -- °F
Precip. -- in
7:06 AM 6:13 PM
Waning Crescent, 11% visible
Pressure 29.88 in
Visibility 10.0 miles
Clouds Clear
Dew Point 39 °F
Humidity 62%
Rainfall 0.00 in
Snow Depth Not available.
UV 0 out of 12
Pollen 4.50 out of 12
Ozone Good
PM2.5 Good
Flu Activity Sporadic
METAR KBFL 201254Z AUTO 35007KT 10SM CLR 17/08 A2990 RMK AO2 SLP119 T01670078

More Conditions Fewer Conditions

Pressure 29.88 in
Visibility 10.0 miles
Clouds Clear
Dew Point 39 °F
Humidity 62%
Rainfall 0.00 in
Snow Depth Not available.
UV 0 out of 12
Pollen 4.50 out of 12
Ozone Good
PM2.5 Good
Flu Activity Sporadic
METAR KBFL 201254Z AUTO 35007KT 10SM CLR 17/08 A2990 RMK AO2 SLP119 T01670078

More Conditions Fewer Conditions

10-Day Weather Forecast

Almanac

Astronomy

Oct. 20, 2014 Rise Set
Actual Time 7:06 AM PDT 6:13 PM PDT
Civil Twilight 6:40 AM PDT 6:39 PM PDT
Nautical Twilight 6:10 AM PDT 7:08 PM PDT
Astronomical Twilight 5:40 AM PDT 7:38 PM PDT
Moon 4:05 AM PDT 4:33 PM PDT
Length of Visible Light 11h 58m
Length of Day
11h 06m
Waning Crescent, 11% of the Moon is Illuminated
Today
Waning Crescent
Oct 23
New
Oct 30
First Quarter
Nov 6
Full
Nov 14
Last Quarter

Today's Extremes

State Highs State Lows

Community

WunderPhotos

Upload Photos

1,763,363 photos uploaded!

Nearby

Air Quality

  Air Quality AQ Index Pollutant
Yesterday Moderate
OZONE
Yesterday Good
PM2.5
Current Good
PM2.5
Current Good
OZONE
Monday Moderate
PM10
Tuesday Good
OZONE
Wednesday Moderate
PM10
Thursday Moderate
PM10
Friday Moderate
PM10

Snow Depth

Station Depth Elevation
Leavitt Lake 1 in 9400 ft
Sonora Pass 0 in 8800 ft
Leavitt Meadows 1 in 7200 ft
Summit Meadow 1 in 9122 ft
Poison Flat 0 in 7900 ft

Earthquake Activity

City Distance Mag. Time & Date
Lone Pine, California 46 miles 2.6 5:26 AM PDT
2014-10-19
Dixon Lane-Meadow Creek, California 131 miles 2.5 5:32 PM PDT
2014-10-18
Minimum magnitude displayed is 2.5.

Coastal Water Temperatures

Place Temperature
No Stations Reporting

Nearby Weather Stations